logo
Search for airport 
image banner adimage banner adimage banner ad
image banner ad

MMHER - Hacienda El Refugio

Located in Muzquiz, Mexico

ICAO - , IATA -

Data provided by Airmate  

General information

Coordinates: N27°51'27" W101°31'39"
Elevation is 1295 feet MSL.
Magnetic variation is 5° East
View others Airports in Coahuila

Operational data

Special qualification required
Current time UTC:
Current local time:
Weather at : - ( 0 km )
METAR: PAVC 180753Z AUTO 19009KT 10SM -RA OVC029 02/01 A2952 RMK AO2 RAB32 FZRANO PNO $
View NOTAMs / SUP AIP / TFR affecting this airport [VIEW]
Communications frequencies: [VIEW]

Runways:

RWY identifierQFULength (ft)Width (ft)SurfaceLDA (ft)
31312°400265ASPH
13132°400265ASPH

Airport contact information

Address: Muzquiz Mexico

Satellite view of MMHER